Wetterdaten der Wetterstation 58769 Nachrodt-Wiblingwerde

Letzte Wetterlage 02.04.2015 03:14
Wetterdiagramm
Tabellarische Darstellung
Datum Temperatur Windchill Feuchte Luftdruck Windrichtung Windstärke Niederschlag
02.04.2015 03:19 3,8 °C 3,8 °C 85 % 1010,9 hPa 90 1.7 1,2 l/m²
02.04.2015 03:14 3,8 °C 3,8 °C 85 % 1011,2 hPa 180 1.0 1,2 l/m²
02.04.2015 03:09 3,8 °C 3,8 °C 85 % 1011,3 hPa 270 0.0 1,2 l/m²
02.04.2015 03:04 3,9 °C 3,9 °C 85 % 1011,3 hPa 225 0.3 0,9 l/m²
02.04.2015 02:59 4,0 °C 4,0 °C 84 % 1011,4 hPa 90 0.0 0,6 l/m²
02.04.2015 02:54 4,0 °C 4,0 °C 83 % 1011,6 hPa 135 1.7 0,6 l/m²
02.04.2015 02:49 4,1 °C 4,1 °C 83 % 1011,7 hPa 315 1.4 0,3 l/m²
02.04.2015 02:44 4,1 °C 4,1 °C 83 % 1011,8 hPa 180 0.7 0,3 l/m²
02.04.2015 02:39 4,2 °C 4,2 °C 83 % 1012,0 hPa 225 1.0 0 l/m²
02.04.2015 02:34 4,2 °C 4,2 °C 82 % 1011,8 hPa 180 0.7 0 l/m²
02.04.2015 02:29 4,3 °C 1,5 °C 82 % 1011,8 hPa 270 2.7 0 l/m²
02.04.2015 02:24 4,4 °C 4,4 °C 82 % 1012,1 hPa 225 1.7 0 l/m²
02.04.2015 02:19 4,4 °C 2,4 °C 81 % 1012,0 hPa 23 2.4 0 l/m²
02.04.2015 02:14 4,5 °C 4,5 °C 81 % 1012,4 hPa 180 0.3 0 l/m²
02.04.2015 02:09 4,6 °C 2,7 °C 81 % 1012,4 hPa 225 2.4 0 l/m²
02.04.2015 02:04 4,7 °C 4,7 °C 81 % 1012,3 hPa 180 0.7 0 l/m²
02.04.2015 01:59 4,7 °C 4,7 °C 81 % 1012,4 hPa 90 2.0 0 l/m²
02.04.2015 01:54 4,7 °C 4,7 °C 81 % 1012,4 hPa 225 0.3 0 l/m²
02.04.2015 01:49 4,7 °C 4,7 °C 81 % 1012,6 hPa 158 0.3 0 l/m²
02.04.2015 01:44 4,6 °C 2,7 °C 81 % 1012,6 hPa 90 2.4 0 l/m²
02.04.2015 01:39 4,6 °C 1,8 °C 81 % 1012,7 hPa 225 2.7 0 l/m²
02.04.2015 01:34 4,6 °C 4,6 °C 81 % 1012,9 hPa 225 2.0 0 l/m²
02.04.2015 01:29 4,6 °C 4,6 °C 81 % 1013,0 hPa 180 0.3 0 l/m²
02.04.2015 01:24 4,6 °C 4,6 °C 81 % 1013,2 hPa 180 2.0 0 l/m²
02.04.2015 01:19 4,5 °C 2,6 °C 82 % 1013,2 hPa 180 2.4 0 l/m²
Neue Wetterwarnung

Neue Niederschlagsmeldung
Neue Meldung
Regen Liveticker
    sehr starker Regen/Gewitter
    starker Regen/Gewitter
    mäßiger bis starker Regen
    mäßiger Regen
    leichter bis mäßiger Regen
    kein Regen